Time;durP1;ratioP1;P1;durP2;ratioP2;P2;SDS_P1;SDS_P2;PMS_P1;PMS_P2;Temp;Humidity;BMP_temperature;BMP_pressure;BME280_temperature;BME280_humidity;BME280_pressure;Samples;Min_cycle;Max_cycle;Signal;HPM_P1;HPM_P2
2022/01/05 00:00:55;;;;;;;10.27;2.70;;;;;;;;;;2275723;59;21112;-80
2022/01/05 00:03:22;;;;;;;11.25;2.72;;;;;;;;;;2275573;59;21076;-81
2022/01/05 00:05:49;;;;;;;9.65;2.53;;;;;;;;;;2275147;59;21076;-80
2022/01/05 00:08:18;;;;;;;10.98;4.57;;;;;;;;;;2275269;59;21112;-80
2022/01/05 00:10:45;;;;;;;11.95;2.42;;;;;;;;;;2275111;59;21120;-80
2022/01/05 00:13:12;;;;;;;9.00;2.47;;;;;;;;;;2275433;59;21511;-80
2022/01/05 00:15:39;;;;;;;9.07;2.70;;;;;;;;;;2274339;59;21077;-81
2022/01/05 00:18:06;;;;;;;10.90;2.92;;;;;;;;;;2275342;59;21136;-80
2022/01/05 00:20:33;;;;;;;10.57;2.50;;;;;;;;;;2273859;59;21601;-80
2022/01/05 00:23:00;;;;;;;10.15;2.42;;;;;;;;;;2504916;55;21336;-81
2022/01/05 00:25:28;;;;;;;10.23;3.47;;;;;;;;;;2503363;55;21101;-80
2022/01/05 00:27:55;;;;;;;8.95;2.50;;;;;;;;;;2504977;55;21107;-80
2022/01/05 00:30:22;;;;;;;10.45;2.12;;;;;;;;;;2504604;55;21069;-80
2022/01/05 00:32:49;;;;;;;9.98;2.17;;;;;;;;;;2504636;55;21084;-80
2022/01/05 00:35:16;;;;;;;9.65;2.37;;;;;;;;;;2504314;55;21072;-80
2022/01/05 00:37:44;;;;;;;13.07;3.15;;;;;;;;;;2273251;59;21743;-80
2022/01/05 00:40:12;;;;;;;9.32;2.65;;;;;;;;;;2503138;55;21124;-80
2022/01/05 00:42:39;;;;;;;12.68;4.00;;;;;;;;;;2504990;55;21072;-82
2022/01/05 00:45:07;;;;;;;12.13;2.92;;;;;;;;;;2505714;55;21091;-79
2022/01/05 00:47:34;;;;;;;10.20;2.22;;;;;;;;;;2504030;55;21292;-81
2022/01/05 00:50:01;;;;;;;10.25;2.22;;;;;;;;;;2505472;55;21120;-80
2022/01/05 00:52:28;;;;;;;11.05;2.65;;;;;;;;;;2273183;59;21143;-81
2022/01/05 00:54:56;;;;;;;7.50;1.98;;;;;;;;;;2504522;55;21163;-81
2022/01/05 00:57:23;;;;;;;5.90;2.42;;;;;;;;;;2505849;55;21107;-81
2022/01/05 00:59:50;;;;;;;15.00;2.53;;;;;;;;;;2274242;59;21112;-81
2022/01/05 01:02:17;;;;;;;9.23;1.95;;;;;;;;;;2505816;55;21076;-81
2022/01/05 01:04:44;;;;;;;9.52;2.10;;;;;;;;;;2507598;55;21148;-80
2022/01/05 01:07:11;;;;;;;8.40;2.03;;;;;;;;;;2504441;55;21155;-81
2022/01/05 01:09:39;;;;;;;5.12;2.03;;;;;;;;;;2505927;55;21091;-81
2022/01/05 01:12:07;;;;;;;10.07;1.95;;;;;;;;;;2505742;55;21174;-79
2022/01/05 01:14:34;;;;;;;12.45;2.72;;;;;;;;;;2504730;55;21159;-79
2022/01/05 01:17:01;;;;;;;10.40;3.97;;;;;;;;;;2273191;59;21850;-81
2022/01/05 01:19:28;;;;;;;6.80;1.90;;;;;;;;;;2504269;55;21056;-80
2022/01/05 01:21:57;;;;;;;6.07;2.03;;;;;;;;;;2504584;55;21075;-79
2022/01/05 01:24:25;;;;;;;12.37;2.12;;;;;;;;;;2504682;55;21080;-80
2022/01/05 01:26:52;;;;;;;8.30;2.62;;;;;;;;;;2504749;55;21171;-80
2022/01/05 01:29:19;;;;;;;12.05;2.25;;;;;;;;;;2504603;55;21065;-79
2022/01/05 01:31:47;;;;;;;12.63;2.65;;;;;;;;;;2504824;55;21575;-78
2022/01/05 01:34:15;;;;;;;8.10;2.15;;;;;;;;;;2273323;59;21133;-80
2022/01/05 01:36:42;;;;;;;8.48;1.70;;;;;;;;;;2505148;55;21124;-80
2022/01/05 01:39:09;;;;;;;9.75;2.12;;;;;;;;;;2504666;55;21831;-79
2022/01/05 01:41:36;;;;;;;11.20;2.33;;;;;;;;;;2505038;55;21085;-80
2022/01/05 01:44:03;;;;;;;11.52;2.10;;;;;;;;;;2273295;59;21080;-80
2022/01/05 01:46:30;;;;;;;6.05;2.58;;;;;;;;;;2272937;59;21073;-79
2022/01/05 01:48:57;;;;;;;6.93;2.35;;;;;;;;;;2273028;59;21382;-80
2022/01/05 01:51:24;;;;;;;10.45;2.17;;;;;;;;;;2273635;59;21386;-80
2022/01/05 01:53:51;;;;;;;11.75;2.20;;;;;;;;;;2273486;59;21172;-80
2022/01/05 01:56:19;;;;;;;10.50;1.75;;;;;;;;;;2504845;55;21052;-80
2022/01/05 01:58:48;;;;;;;14.13;2.42;;;;;;;;;;2504600;55;21323;-78
2022/01/05 02:01:15;;;;;;;13.75;2.47;;;;;;;;;;2273319;59;21338;-80
2022/01/05 02:03:42;;;;;;;9.43;2.72;;;;;;;;;;2273218;59;21160;-80
2022/01/05 02:06:09;;;;;;;19.33;4.03;;;;;;;;;;2504372;55;21156;-80
2022/01/05 02:08:36;;;;;;;12.88;2.65;;;;;;;;;;2504167;55;21822;-80
2022/01/05 02:11:04;;;;;;;10.57;2.17;;;;;;;;;;2273151;59;21164;-80
2022/01/05 02:13:31;;;;;;;8.35;2.17;;;;;;;;;;2273041;59;21128;-79
2022/01/05 02:15:58;;;;;;;19.42;2.70;;;;;;;;;;2273195;59;21358;-80
2022/01/05 02:21:11;;;;;;;7.28;2.25;;;;;;;;;;2273153;59;21072;-80
2022/01/05 02:23:39;;;;;;;4.85;1.80;;;;;;;;;;2272731;59;21292;-80
2022/01/05 02:26:06;;;;;;;13.43;3.03;;;;;;;;;;2272924;59;21084;-78
2022/01/05 02:28:33;;;;;;;7.78;2.50;;;;;;;;;;2272970;59;21076;-80
2022/01/05 02:31:03;;;;;;;13.32;2.50;;;;;;;;;;2504110;55;21144;-80
2022/01/05 02:33:30;;;;;;;11.10;2.12;;;;;;;;;;2273145;59;21084;-79
2022/01/05 02:35:57;;;;;;;8.48;2.40;;;;;;;;;;2273167;59;21168;-79
2022/01/05 02:38:25;;;;;;;7.82;2.05;;;;;;;;;;2504617;55;21140;-80
2022/01/05 02:40:52;;;;;;;13.20;2.70;;;;;;;;;;2272708;59;21160;-79
2022/01/05 02:43:19;;;;;;;9.80;2.40;;;;;;;;;;2273056;59;21167;-80
2022/01/05 02:45:46;;;;;;;9.25;2.47;;;;;;;;;;2273158;59;21072;-80
2022/01/05 02:48:13;;;;;;;14.15;2.97;;;;;;;;;;2273181;59;21159;-79
2022/01/05 02:50:40;;;;;;;11.23;2.58;;;;;;;;;;2272916;59;21085;-80
2022/01/05 02:53:07;;;;;;;19.95;3.12;;;;;;;;;;2504762;55;21656;-79
2022/01/05 02:55:34;;;;;;;11.18;2.45;;;;;;;;;;2504429;55;21789;-79
2022/01/05 02:58:01;;;;;;;22.05;2.90;;;;;;;;;;2272853;59;21584;-79
2022/01/05 03:00:28;;;;;;;14.52;2.55;;;;;;;;;;2272848;59;21068;-79
2022/01/05 03:02:55;;;;;;;17.05;3.17;;;;;;;;;;2272281;59;21152;-79
2022/01/05 03:05:22;;;;;;;9.70;2.53;;;;;;;;;;2272460;59;21143;-79
2022/01/05 03:07:49;;;;;;;10.88;2.05;;;;;;;;;;2273239;59;21140;-79
2022/01/05 03:10:16;;;;;;;10.13;2.78;;;;;;;;;;2503894;55;21080;-79
2022/01/05 03:12:44;;;;;;;10.55;2.97;;;;;;;;;;2272630;59;21108;-80
2022/01/05 03:15:11;;;;;;;8.80;2.22;;;;;;;;;;2273278;59;21100;-79
2022/01/05 03:17:39;;;;;;;15.68;2.62;;;;;;;;;;2504011;55;21561;-80
2022/01/05 03:20:07;;;;;;;13.90;2.30;;;;;;;;;;2272756;59;21108;-79
2022/01/05 03:22:35;;;;;;;8.93;2.12;;;;;;;;;;2504904;55;21080;-79
2022/01/05 03:25:02;;;;;;;6.78;2.10;;;;;;;;;;2273145;59;21109;-79
2022/01/05 03:27:29;;;;;;;7.53;2.10;;;;;;;;;;2504764;55;21167;-79
2022/01/05 03:29:56;;;;;;;16.98;3.15;;;;;;;;;;2504280;55;21089;-78
2022/01/05 03:32:25;;;;;;;11.88;2.08;;;;;;;;;;2503742;55;21084;-79
2022/01/05 03:34:52;;;;;;;16.48;3.47;;;;;;;;;;2504186;55;21080;-79
2022/01/05 03:37:20;;;;;;;12.35;2.95;;;;;;;;;;2504084;55;21076;-80
2022/01/05 03:39:48;;;;;;;9.70;2.20;;;;;;;;;;2504228;55;21080;-79
2022/01/05 03:42:15;;;;;;;11.30;2.70;;;;;;;;;;2503810;55;21049;-79
2022/01/05 03:44:42;;;;;;;9.48;2.20;;;;;;;;;;2503930;55;21073;-79
2022/01/05 03:47:09;;;;;;;9.18;2.55;;;;;;;;;;2503734;55;21577;-79
2022/01/05 03:49:36;;;;;;;6.10;1.92;;;;;;;;;;2503755;55;21096;-79
2022/01/05 03:52:04;;;;;;;7.78;2.30;;;;;;;;;;2503818;55;21160;-79
2022/01/05 03:54:31;;;;;;;9.35;3.05;;;;;;;;;;2504083;55;21083;-78
2022/01/05 03:56:58;;;;;;;9.80;2.72;;;;;;;;;;2503817;55;21557;-79
2022/01/05 03:59:25;;;;;;;9.40;3.08;;;;;;;;;;2503987;55;21108;-79
2022/01/05 04:01:52;;;;;;;11.93;2.87;;;;;;;;;;2503337;55;21136;-79
2022/01/05 04:04:19;;;;;;;10.30;2.17;;;;;;;;;;2503607;55;21159;-79
2022/01/05 04:06:47;;;;;;;15.52;3.12;;;;;;;;;;2503903;55;21414;-78
2022/01/05 04:09:14;;;;;;;12.60;2.87;;;;;;;;;;2503610;55;21072;-78
2022/01/05 04:11:41;;;;;;;8.82;2.22;;;;;;;;;;2503727;55;21076;-78
2022/01/05 04:14:08;;;;;;;13.95;2.70;;;;;;;;;;2503738;55;21311;-78
2022/01/05 04:16:35;;;;;;;10.85;2.00;;;;;;;;;;2503827;55;21111;-78
2022/01/05 04:19:02;;;;;;;10.63;2.12;;;;;;;;;;2503386;55;21148;-78
2022/01/05 04:21:29;;;;;;;11.70;2.40;;;;;;;;;;2503913;55;21442;-78
2022/01/05 04:23:57;;;;;;;9.57;2.15;;;;;;;;;;2503746;55;21140;-79
2022/01/05 04:26:24;;;;;;;8.05;2.05;;;;;;;;;;2503744;55;21084;-78
2022/01/05 04:28:51;;;;;;;9.70;2.20;;;;;;;;;;2503686;55;21076;-77
2022/01/05 04:31:18;;;;;;;9.60;2.83;;;;;;;;;;2503525;55;21072;-77
2022/01/05 04:33:45;;;;;;;12.60;2.62;;;;;;;;;;2503499;55;21092;-78
2022/01/05 04:36:12;;;;;;;7.00;2.03;;;;;;;;;;2503728;55;21064;-78
2022/01/05 04:38:40;;;;;;;5.78;2.12;;;;;;;;;;2503725;55;21072;-78
2022/01/05 04:41:07;;;;;;;7.43;2.87;;;;;;;;;;2503639;55;21791;-78
2022/01/05 04:43:34;;;;;;;8.52;2.30;;;;;;;;;;2503799;55;21079;-78
2022/01/05 04:46:01;;;;;;;11.77;3.30;;;;;;;;;;2503639;55;21088;-78
2022/01/05 04:48:29;;;;;;;13.98;2.22;;;;;;;;;;2503864;55;21080;-78
2022/01/05 04:50:56;;;;;;;10.25;2.42;;;;;;;;;;2503304;55;21092;-78
2022/01/05 04:53:23;;;;;;;14.43;2.50;;;;;;;;;;2503600;55;21375;-78
2022/01/05 04:55:51;;;;;;;12.98;2.22;;;;;;;;;;2503539;55;21413;-78
2022/01/05 04:58:18;;;;;;;14.32;2.95;;;;;;;;;;2503454;55;21160;-78
2022/01/05 05:00:45;;;;;;;8.02;3.28;;;;;;;;;;2502721;55;21152;-78
2022/01/05 05:03:12;;;;;;;13.77;3.97;;;;;;;;;;2502770;55;21092;-79
2022/01/05 05:05:39;;;;;;;12.85;2.35;;;;;;;;;;2503288;55;21045;-78
2022/01/05 05:08:07;;;;;;;13.73;2.92;;;;;;;;;;2503686;55;21096;-77
2022/01/05 05:10:34;;;;;;;8.68;2.47;;;;;;;;;;2503763;55;21807;-77
2022/01/05 05:13:07;;;;;;;8.23;1.83;;;;;;;;;;2503723;55;21152;-77
2022/01/05 05:15:34;;;;;;;12.30;2.10;;;;;;;;;;2503859;55;21077;-77
2022/01/05 05:18:02;;;;;;;11.90;2.60;;;;;;;;;;2503720;55;21156;-77
2022/01/05 05:20:29;;;;;;;10.18;2.60;;;;;;;;;;2503357;55;21124;-78
2022/01/05 05:22:56;;;;;;;9.40;2.50;;;;;;;;;;2503180;55;21151;-77
2022/01/05 05:25:23;;;;;;;14.68;3.85;;;;;;;;;;2503773;55;21141;-78
2022/01/05 05:27:50;;;;;;;12.80;2.90;;;;;;;;;;2503425;55;21712;-78
2022/01/05 05:30:17;;;;;;;14.80;2.72;;;;;;;;;;2503691;55;21144;-79
2022/01/05 05:32:44;;;;;;;13.80;2.60;;;;;;;;;;2503515;55;21183;-79
2022/01/05 05:35:12;;;;;;;8.85;2.10;;;;;;;;;;2503162;55;21081;-78
2022/01/05 05:37:39;;;;;;;11.93;2.35;;;;;;;;;;2503490;55;21080;-79
2022/01/05 05:40:07;;;;;;;17.05;4.28;;;;;;;;;;2503699;55;21108;-79
2022/01/05 05:42:34;;;;;;;8.70;2.10;;;;;;;;;;2503969;55;21331;-79
2022/01/05 05:45:01;;;;;;;8.68;2.35;;;;;;;;;;2504282;55;21068;-79
2022/01/05 05:47:28;;;;;;;12.15;3.33;;;;;;;;;;2504125;55;21060;-80
2022/01/05 05:49:56;;;;;;;9.10;2.83;;;;;;;;;;2504324;55;21800;-79
2022/01/05 05:52:23;;;;;;;12.23;2.87;;;;;;;;;;2503900;55;21151;-78
2022/01/05 05:54:52;;;;;;;11.07;2.83;;;;;;;;;;2503969;55;21191;-79
2022/01/05 05:57:19;;;;;;;16.92;3.45;;;;;;;;;;2503996;55;21064;-78
2022/01/05 05:59:46;;;;;;;10.75;2.22;;;;;;;;;;2503630;55;21096;-79
2022/01/05 06:02:13;;;;;;;9.07;2.60;;;;;;;;;;2504545;55;21120;-79
2022/01/05 06:04:40;;;;;;;10.52;2.40;;;;;;;;;;2504277;55;21323;-79
2022/01/05 06:07:08;;;;;;;9.40;1.75;;;;;;;;;;2504383;55;21073;-78
2022/01/05 06:09:35;;;;;;;7.72;2.00;;;;;;;;;;2504408;55;21080;-78
2022/01/05 06:12:02;;;;;;;8.73;2.72;;;;;;;;;;2504722;55;21171;-79
2022/01/05 06:14:29;;;;;;;11.73;2.35;;;;;;;;;;2503823;55;21073;-80
2022/01/05 06:16:56;;;;;;;15.23;3.17;;;;;;;;;;2505551;55;21112;-78
2022/01/05 06:19:23;;;;;;;19.30;3.75;;;;;;;;;;2508520;55;21041;-79
2022/01/05 06:21:50;;;;;;;12.82;3.08;;;;;;;;;;2507505;55;21049;-81
2022/01/05 06:24:17;;;;;;;11.02;2.97;;;;;;;;;;2275565;59;21093;-81
2022/01/05 06:26:45;;;;;;;13.60;2.78;;;;;;;;;;2506821;55;21068;-80
2022/01/05 06:29:13;;;;;;;7.00;2.50;;;;;;;;;;2275238;59;21076;-79
2022/01/05 06:31:41;;;;;;;12.98;3.08;;;;;;;;;;2275593;59;21069;-77
2022/01/05 06:34:08;;;;;;;7.20;2.25;;;;;;;;;;2275581;59;21068;-81
2022/01/05 06:36:35;;;;;;;18.05;3.67;;;;;;;;;;2275288;59;21072;-80
2022/01/05 06:39:02;;;;;;;10.07;2.35;;;;;;;;;;2274816;59;21093;-80
2022/01/05 06:41:29;;;;;;;18.37;3.60;;;;;;;;;;2507061;55;21108;-79
2022/01/05 06:43:56;;;;;;;11.73;2.75;;;;;;;;;;2275194;59;21093;-80
2022/01/05 06:46:23;;;;;;;9.27;2.55;;;;;;;;;;2276445;59;21187;-81
2022/01/05 06:48:50;;;;;;;11.75;2.85;;;;;;;;;;2507308;55;21060;-81
2022/01/05 06:51:17;;;;;;;12.02;3.22;;;;;;;;;;2276224;59;21291;-81
2022/01/05 06:53:44;;;;;;;13.73;3.20;;;;;;;;;;2276043;59;21124;-82
2022/01/05 06:56:11;;;;;;;11.20;2.97;;;;;;;;;;2507715;55;21053;-81
2022/01/05 06:58:38;;;;;;;10.38;2.80;;;;;;;;;;2276065;59;21072;-81
2022/01/05 07:01:05;;;;;;;10.38;3.00;;;;;;;;;;2507495;55;21117;-81
2022/01/05 07:03:32;;;;;;;14.70;3.30;;;;;;;;;;2275909;59;21076;-81
2022/01/05 07:05:58;;;;;;;19.92;3.42;;;;;;;;;;2276346;59;21088;-82
2022/01/05 07:08:25;;;;;;;11.27;2.80;;;;;;;;;;2507916;55;21120;-81
2022/01/05 07:10:52;;;;;;;12.77;2.60;;;;;;;;;;2276174;59;21151;-82
2022/01/05 07:13:19;;;;;;;15.27;2.65;;;;;;;;;;2276112;59;21152;-81
2022/01/05 07:15:46;;;;;;;9.68;3.58;;;;;;;;;;2508194;55;21271;-82
2022/01/05 07:18:13;;;;;;;11.93;2.78;;;;;;;;;;2507803;55;21073;-83
2022/01/05 07:20:40;;;;;;;12.37;2.90;;;;;;;;;;2276075;59;21084;-82
2022/01/05 07:23:08;;;;;;;17.15;4.18;;;;;;;;;;2276360;59;21085;-82
2022/01/05 07:25:35;;;;;;;16.67;3.92;;;;;;;;;;2276464;59;21056;-82
2022/01/05 07:28:03;;;;;;;17.33;2.95;;;;;;;;;;2276205;59;21152;-82
2022/01/05 07:30:30;;;;;;;9.80;3.47;;;;;;;;;;2507672;55;21049;-82
2022/01/05 07:32:56;;;;;;;12.27;3.15;;;;;;;;;;2276134;59;21136;-82
2022/01/05 07:35:23;;;;;;;12.95;2.67;;;;;;;;;;2508020;55;21076;-82
2022/01/05 07:37:50;;;;;;;17.92;3.20;;;;;;;;;;2276302;59;21108;-81
2022/01/05 07:40:17;;;;;;;18.75;3.22;;;;;;;;;;2507562;55;21084;-81
2022/01/05 07:42:44;;;;;;;15.02;3.17;;;;;;;;;;2276052;59;21219;-82
2022/01/05 07:45:12;;;;;;;15.98;3.20;;;;;;;;;;2275873;59;21561;-82
2022/01/05 07:47:39;;;;;;;15.15;3.97;;;;;;;;;;2275773;59;21076;-82
2022/01/05 07:50:14;;;;;;;13.05;2.70;;;;;;;;;;2275982;59;21112;-81
2022/01/05 07:52:41;;;;;;;16.25;3.00;;;;;;;;;;2508139;55;21069;-82
2022/01/05 07:55:09;;;;;;;13.02;3.05;;;;;;;;;;2276188;59;21145;-81
2022/01/05 07:57:37;;;;;;;14.77;3.50;;;;;;;;;;2507965;55;21064;-81
2022/01/05 08:00:05;;;;;;;14.20;3.65;;;;;;;;;;2275620;59;21136;-80
2022/01/05 08:02:32;;;;;;;15.60;2.97;;;;;;;;;;2275975;59;21116;-80
2022/01/05 08:04:59;;;;;;;12.63;3.10;;;;;;;;;;2275455;59;21137;-80
2022/01/05 08:07:26;;;;;;;15.48;2.70;;;;;;;;;;2275417;59;21073;-81
2022/01/05 08:09:53;;;;;;;11.32;3.28;;;;;;;;;;2275170;59;21052;-81
2022/01/05 08:12:20;;;;;;;18.70;4.55;;;;;;;;;;2275289;59;21139;-81
2022/01/05 08:14:48;;;;;;;13.45;3.00;;;;;;;;;;2507131;55;21149;-81
2022/01/05 08:17:15;;;;;;;17.58;3.62;;;;;;;;;;2275958;59;21065;-81
2022/01/05 08:19:42;;;;;;;18.62;4.37;;;;;;;;;;2507033;55;21788;-79
2022/01/05 08:22:09;;;;;;;18.30;3.95;;;;;;;;;;2275613;59;21073;-79
2022/01/05 08:24:36;;;;;;;16.80;3.72;;;;;;;;;;2275842;59;21568;-80
2022/01/05 08:27:04;;;;;;;21.75;4.40;;;;;;;;;;2275657;59;21573;-80
2022/01/05 08:29:31;;;;;;;19.70;3.00;;;;;;;;;;2275882;59;21113;-80
2022/01/05 08:32:02;;;;;;;14.20;3.65;;;;;;;;;;2507420;55;21588;-81
2022/01/05 08:34:30;;;;;;;13.77;3.53;;;;;;;;;;2275783;59;21127;-81
2022/01/05 08:36:57;;;;;;;11.18;3.35;;;;;;;;;;2507650;55;21049;-81
2022/01/05 08:39:24;;;;;;;14.15;3.95;;;;;;;;;;2276138;59;21052;-80
2022/01/05 08:41:51;;;;;;;11.02;3.65;;;;;;;;;;2276550;59;21671;-81
2022/01/05 08:44:18;;;;;;;13.38;3.95;;;;;;;;;;2276351;59;21152;-81
2022/01/05 08:46:45;;;;;;;12.25;4.20;;;;;;;;;;2277844;59;21584;-82
2022/01/05 08:49:12;;;;;;;12.40;4.07;;;;;;;;;;2277288;59;21068;-82
2022/01/05 08:51:39;;;;;;;10.43;3.42;;;;;;;;;;2508423;55;21061;-81
2022/01/05 08:54:06;;;;;;;16.23;4.00;;;;;;;;;;2275677;59;21664;-79
2022/01/05 08:56:33;;;;;;;12.13;5.15;;;;;;;;;;2507151;55;21199;-81
2022/01/05 08:59:00;;;;;;;18.15;4.68;;;;;;;;;;2275423;59;21660;-81
2022/01/05 09:01:27;;;;;;;9.18;4.37;;;;;;;;;;2275455;59;21092;-79
2022/01/05 09:03:54;;;;;;;21.40;5.18;;;;;;;;;;2275818;59;21620;-81
2022/01/05 09:06:22;;;;;;;15.57;5.00;;;;;;;;;;2506893;55;21771;-82
2022/01/05 09:08:49;;;;;;;11.38;4.30;;;;;;;;;;2274874;59;21196;-82
2022/01/05 09:11:16;;;;;;;14.98;4.40;;;;;;;;;;2275219;59;21056;-80
2022/01/05 09:13:43;;;;;;;14.23;4.50;;;;;;;;;;2275030;59;21045;-80
2022/01/05 09:16:10;;;;;;;15.13;5.12;;;;;;;;;;2275825;59;21053;-83
2022/01/05 09:18:37;;;;;;;14.77;4.35;;;;;;;;;;2275945;59;21076;-83
2022/01/05 09:21:04;;;;;;;11.12;4.68;;;;;;;;;;2276056;59;21056;-80
2022/01/05 09:23:31;;;;;;;15.90;4.55;;;;;;;;;;2507921;55;21065;-81
2022/01/05 09:25:58;;;;;;;11.38;4.40;;;;;;;;;;2276370;59;21072;-81
2022/01/05 09:28:25;;;;;;;9.40;3.95;;;;;;;;;;2275852;59;21572;-82
2022/01/05 09:30:52;;;;;;;15.65;4.57;;;;;;;;;;2275924;59;21198;-82
2022/01/05 09:33:19;;;;;;;14.68;5.07;;;;;;;;;;2507063;55;21076;-82
2022/01/05 09:35:49;;;;;;;17.48;6.47;;;;;;;;;;2507010;55;21636;-82
2022/01/05 09:38:34;;;;;;;17.42;4.43;;;;;;;;;;2276452;59;21063;-83
2022/01/05 09:43:54;;;;;;;16.02;4.43;;;;;;;;;;2276023;59;21344;-82
2022/01/05 09:46:30;;;;;;;9.10;4.22;;;;;;;;;;2275837;59;21072;-82
2022/01/05 09:49:02;;;;;;;8.88;4.32;;;;;;;;;;2275779;59;21084;-80
2022/01/05 09:51:31;;;;;;;9.68;3.83;;;;;;;;;;2507051;55;21041;-81
2022/01/05 09:53:59;;;;;;;16.83;4.85;;;;;;;;;;2275905;59;21140;-82
2022/01/05 09:56:26;;;;;;;10.80;5.20;;;;;;;;;;2276078;59;21065;-83
2022/01/05 09:58:55;;;;;;;16.40;4.75;;;;;;;;;;2507779;55;21148;-82
2022/01/05 10:01:22;;;;;;;16.92;3.97;;;;;;;;;;2276469;59;21064;-82
2022/01/05 10:03:49;;;;;;;7.15;4.18;;;;;;;;;;2276157;59;21140;-82
2022/01/05 10:06:16;;;;;;;14.98;4.43;;;;;;;;;;2507554;55;21665;-84
2022/01/05 10:08:44;;;;;;;17.58;5.85;;;;;;;;;;2276097;59;21612;-82
2022/01/05 10:11:11;;;;;;;8.43;5.32;;;;;;;;;;2508051;55;21067;-83
2022/01/05 10:13:38;;;;;;;13.48;5.85;;;;;;;;;;2507942;55;21112;-83
2022/01/05 10:16:05;;;;;;;10.45;5.93;;;;;;;;;;2276562;59;21069;-82
2022/01/05 10:18:40;;;;;;;17.00;6.82;;;;;;;;;;2275909;59;21081;-83
2022/01/05 10:21:07;;;;;;;10.93;5.43;;;;;;;;;;2508000;55;21120;-82
2022/01/05 10:23:35;;;;;;;11.75;6.80;;;;;;;;;;2508230;55;21172;-83
2022/01/05 10:26:18;;;;;;;14.38;6.70;;;;;;;;;;2276076;59;21076;-81
2022/01/05 10:28:46;;;;;;;16.02;8.13;;;;;;;;;;2275895;59;21088;-80
2022/01/05 10:31:14;;;;;;;18.83;7.75;;;;;;;;;;2276044;59;21144;-82
2022/01/05 10:33:42;;;;;;;16.05;8.20;;;;;;;;;;2275493;59;21118;-81
2022/01/05 10:36:09;;;;;;;16.12;7.12;;;;;;;;;;2275673;59;21056;-83
2022/01/05 10:38:36;;;;;;;16.12;6.93;;;;;;;;;;2275786;59;21144;-82
2022/01/05 10:41:15;;;;;;;16.05;6.90;;;;;;;;;;2507028;55;21056;-83
2022/01/05 10:44:01;;;;;;;17.35;7.65;;;;;;;;;;2276224;59;21080;-82
2022/01/05 10:46:35;;;;;;;21.30;7.37;;;;;;;;;;2275820;59;21072;-81
2022/01/05 10:49:03;;;;;;;17.23;7.95;;;;;;;;;;2275905;59;21056;-83
2022/01/05 10:51:30;;;;;;;17.10;7.68;;;;;;;;;;2275564;59;21067;-82
2022/01/05 10:54:10;;;;;;;15.73;6.93;;;;;;;;;;2275996;59;21604;-82
2022/01/05 10:56:37;;;;;;;17.27;7.18;;;;;;;;;;2276277;59;21064;-83
2022/01/05 10:59:04;;;;;;;14.40;6.15;;;;;;;;;;2276003;59;21057;-83
2022/01/05 11:01:31;;;;;;;15.90;6.80;;;;;;;;;;2275482;59;21076;-83
2022/01/05 11:03:58;;;;;;;16.62;7.15;;;;;;;;;;2507748;55;21059;-82
2022/01/05 11:06:26;;;;;;;17.23;6.28;;;;;;;;;;2276542;59;21052;-82
2022/01/05 11:08:55;;;;;;;14.23;7.53;;;;;;;;;;2505348;55;21389;-82
2022/01/05 11:11:29;;;;;;;12.50;7.50;;;;;;;;;;2274743;59;21072;-82
2022/01/05 11:13:56;;;;;;;19.40;6.62;;;;;;;;;;2275202;59;21072;-82
2022/01/05 11:16:26;;;;;;;17.15;6.55;;;;;;;;;;2504880;55;21072;-80
2022/01/05 11:19:11;;;;;;;12.13;5.95;;;;;;;;;;2504712;55;21044;-81
2022/01/05 11:21:38;;;;;;;13.27;6.75;;;;;;;;;;2274386;59;21415;-82
2022/01/05 11:24:06;;;;;;;11.23;6.78;;;;;;;;;;2273006;59;21080;-81
2022/01/05 11:26:35;;;;;;;18.00;7.50;;;;;;;;;;2273533;59;21438;-81
2022/01/05 11:29:03;;;;;;;17.85;9.07;;;;;;;;;;2504708;55;21140;-82
2022/01/05 11:31:31;;;;;;;14.57;6.50;;;;;;;;;;2274240;59;21080;-81
2022/01/05 11:33:58;;;;;;;22.83;6.30;;;;;;;;;;2506462;55;21157;-80
2022/01/05 11:36:25;;;;;;;13.10;6.95;;;;;;;;;;2274722;59;21060;-81
2022/01/05 11:38:52;;;;;;;13.32;7.20;;;;;;;;;;2506227;55;21600;-79
2022/01/05 11:41:20;;;;;;;9.00;5.00;;;;;;;;;;2275258;59;21064;-81
2022/01/05 11:43:47;;;;;;;9.60;6.35;;;;;;;;;;2275255;59;21064;-80
2022/01/05 11:46:15;;;;;;;12.93;6.50;;;;;;;;;;2507605;55;21589;-78
2022/01/05 11:48:58;;;;;;;11.63;6.03;;;;;;;;;;2275760;59;21131;-78
2022/01/05 11:51:30;;;;;;;11.07;6.40;;;;;;;;;;2506945;55;21072;-79
2022/01/05 11:54:12;;;;;;;10.80;6.90;;;;;;;;;;2507987;55;21045;-81
2022/01/05 11:56:41;;;;;;;10.68;6.43;;;;;;;;;;2276387;59;21067;-81
2022/01/05 11:59:19;;;;;;;11.63;7.32;;;;;;;;;;2275680;59;21116;-82
2022/01/05 12:01:57;;;;;;;12.07;8.00;;;;;;;;;;2276523;59;21061;-81
2022/01/05 12:04:23;;;;;;;12.43;7.47;;;;;;;;;;2507923;55;21632;-80
2022/01/05 12:07:07;;;;;;;10.80;7.18;;;;;;;;;;2276316;59;21080;-81
2022/01/05 12:09:37;;;;;;;10.65;6.22;;;;;;;;;;2275982;59;21227;-83
2022/01/05 12:12:24;;;;;;;8.85;5.40;;;;;;;;;;2276397;59;21064;-81
2022/01/05 12:14:51;;;;;;;10.38;4.85;;;;;;;;;;2508107;55;21087;-81
2022/01/05 12:17:19;;;;;;;6.45;4.75;;;;;;;;;;2275780;59;21564;-81
2022/01/05 12:20:24;;;;;;;5.72;3.67;;;;;;;;;;2506753;55;21065;-81
2022/01/05 12:23:13;;;;;;;6.53;3.12;;;;;;;;;;2276351;59;21569;-81
2022/01/05 12:26:12;;;;;;;5.10;3.42;;;;;;;;;;2276377;59;21065;-81
2022/01/05 12:28:40;;;;;;;7.70;3.50;;;;;;;;;;2276213;59;21056;-80
2022/01/05 12:31:09;;;;;;;5.32;3.08;;;;;;;;;;2276257;59;21143;-82
2022/01/05 12:33:42;;;;;;;5.10;2.90;;;;;;;;;;2276152;59;21075;-82
2022/01/05 12:36:10;;;;;;;3.75;2.55;;;;;;;;;;2275788;59;21051;-82
2022/01/05 12:38:39;;;;;;;4.30;2.83;;;;;;;;;;2276193;59;21061;-81
2022/01/05 12:41:34;;;;;;;4.32;2.67;;;;;;;;;;2276189;59;21132;-82
2022/01/05 12:44:05;;;;;;;2.78;2.58;;;;;;;;;;2255072;59;21108;-80
2022/01/05 12:46:42;;;;;;;2.22;2.00;;;;;;;;;;2276316;59;21132;-82
2022/01/05 12:49:13;;;;;;;2.70;2.05;;;;;;;;;;2276331;59;21112;-84
2022/01/05 12:51:55;;;;;;;3.25;1.92;;;;;;;;;;2275935;59;21139;-83
2022/01/05 12:54:23;;;;;;;5.28;2.15;;;;;;;;;;2508710;55;21132;-83
2022/01/05 12:56:52;;;;;;;3.25;2.12;;;;;;;;;;2276503;59;21156;-83
2022/01/05 12:59:21;;;;;;;2.42;2.10;;;;;;;;;;2275945;59;21069;-83
2022/01/05 13:01:51;;;;;;;2.72;2.12;;;;;;;;;;2276528;59;21168;-84
2022/01/05 13:04:18;;;;;;;2.33;1.90;;;;;;;;;;2276565;59;21068;-84
2022/01/05 13:06:46;;;;;;;4.78;1.92;;;;;;;;;;2276475;59;21057;-83
2022/01/05 13:09:13;;;;;;;3.65;1.77;;;;;;;;;;2507546;55;21120;-83
2022/01/05 13:11:42;;;;;;;2.95;1.95;;;;;;;;;;2276730;59;21666;-82
2022/01/05 13:14:18;;;;;;;2.97;1.80;;;;;;;;;;2507545;55;21096;-84
2022/01/05 13:16:46;;;;;;;4.85;2.22;;;;;;;;;;2276549;59;21124;-81
2022/01/05 13:19:23;;;;;;;1.87;1.60;;;;;;;;;;2507443;55;21556;-82
2022/01/05 13:21:50;;;;;;;2.55;2.00;;;;;;;;;;2276450;59;21056;-83
2022/01/05 13:24:17;;;;;;;2.03;1.90;;;;;;;;;;2276116;59;21088;-82
2022/01/05 13:27:00;;;;;;;3.85;2.17;;;;;;;;;;2275231;59;21108;-83
2022/01/05 13:29:28;;;;;;;6.50;2.15;;;;;;;;;;2508227;55;21179;-83
2022/01/05 13:31:56;;;;;;;3.25;1.87;;;;;;;;;;2508302;55;21084;-82
2022/01/05 13:34:31;;;;;;;5.15;2.25;;;;;;;;;;2508586;55;21120;-84
2022/01/05 13:36:58;;;;;;;3.55;2.20;;;;;;;;;;2277146;59;21072;-83
2022/01/05 13:39:35;;;;;;;3.62;1.92;;;;;;;;;;2508389;55;21628;-83
2022/01/05 13:42:03;;;;;;;2.45;1.92;;;;;;;;;;2509244;55;21073;-83
2022/01/05 13:44:30;;;;;;;5.18;1.98;;;;;;;;;;2509416;55;21060;-83
2022/01/05 13:46:57;;;;;;;5.55;2.00;;;;;;;;;;2509710;55;21116;-83
2022/01/05 13:49:25;;;;;;;6.32;1.73;;;;;;;;;;2276545;59;21096;-83
2022/01/05 13:52:03;;;;;;;7.18;2.03;;;;;;;;;;2277865;59;21033;-83
2022/01/05 13:54:30;;;;;;;5.53;1.98;;;;;;;;;;2511290;55;21116;-82
2022/01/05 13:56:57;;;;;;;6.28;1.70;;;;;;;;;;2278587;59;21125;-83
2022/01/05 13:59:24;;;;;;;2.83;1.83;;;;;;;;;;2277548;59;21065;-82
2022/01/05 14:01:57;;;;;;;5.07;2.12;;;;;;;;;;2510696;55;21085;-82
2022/01/05 14:04:24;;;;;;;5.53;1.62;;;;;;;;;;2278581;59;21088;-80
2022/01/05 14:06:59;;;;;;;3.80;1.60;;;;;;;;;;2511144;55;21164;-81
2022/01/05 14:09:29;;;;;;;5.78;1.80;;;;;;;;;;2510847;55;21056;-83
2022/01/05 14:11:57;;;;;;;10.27;2.08;;;;;;;;;;2277889;59;21116;-84
2022/01/05 14:14:25;;;;;;;6.87;1.67;;;;;;;;;;2510726;55;21208;-83
2022/01/05 14:16:52;;;;;;;6.87;2.12;;;;;;;;;;2278075;59;21132;-80
2022/01/05 14:19:25;;;;;;;6.87;1.90;;;;;;;;;;2509954;55;21069;-83
2022/01/05 14:21:52;;;;;;;10.55;1.70;;;;;;;;;;2510078;55;21222;-82
2022/01/05 14:24:29;;;;;;;7.80;1.73;;;;;;;;;;2278077;59;21081;-82
2022/01/05 14:26:56;;;;;;;9.85;2.50;;;;;;;;;;2510040;55;21040;-80
2022/01/05 14:29:25;;;;;;;7.80;2.12;;;;;;;;;;2509503;55;21077;-83
2022/01/05 14:31:53;;;;;;;14.55;2.83;;;;;;;;;;2508939;55;21076;-84
2022/01/05 14:34:22;;;;;;;6.30;1.65;;;;;;;;;;2276472;59;21139;-84
2022/01/05 14:36:53;;;;;;;8.07;1.80;;;;;;;;;;2509661;55;21065;-84
2022/01/05 14:39:21;;;;;;;8.40;2.60;;;;;;;;;;2275669;59;21155;-82
2022/01/05 14:41:49;;;;;;;5.25;2.00;;;;;;;;;;2507181;55;21140;-82
2022/01/05 14:44:18;;;;;;;12.40;2.12;;;;;;;;;;2506787;55;21144;-81
2022/01/05 14:46:46;;;;;;;9.35;2.05;;;;;;;;;;2506631;55;21093;-80
2022/01/05 14:49:15;;;;;;;9.30;2.00;;;;;;;;;;2275263;59;21128;-81